Main page
METAR-TAF:

METAR-TAF

Airports :

Rovaniemi, Finland

Rovaniemi Airport

latitude: 66-34N, longitude: 025-50E, elevation: 197 m

Current weather observation

The report was made 33 minutes ago, at 21:20 UTC
Wind 3 kt from the East/Southeast
Temperature 0°C
Humidity 47%
Pressure 1030 hPa
Visibility 10 km or more
no clouds below 1500 m and no cumulonimbus

METAR: EFRO 282120Z AUTO 12003KT CAVOK 00/M10 Q1030

Time: 00:53 (21:53 UTC)

Forecast

The report was made 1 hour and 29 minutes ago, at 20:24 UTC
Forecast valid from 28 at 21 UTC to 29 at 21 UTC
Wind 3 kt from the East
Visibility 10 km or more
no clouds below 1500 m and no cumulonimbus
Becoming
from 29 at 18 UTC to 29 at 20 UTC
Wind 12 kt from the East/Northeast

TAF: EFRO 282024Z 2821/2921 10003KT CAVOK BECMG 2918/2920 07012KT

Weather observations and forecasts of more than 4000 airports (METAR and TAF reports).

The available stations are represented by yellow and red dots on the map.

Hover mouse over dot to see the name of the station.

Then click to see weather observations and forecasts.

To change the map : click on the green buttons with a black cross to zoom in, on the green button with a dash to zoom out, or on the green arrows for adjacent maps.


METAR-TAF: